createdAt,value
2022-12-11T00:04:37.343Z,46.79
2022-12-11T00:09:40.996Z,46.25
2022-12-11T00:14:45.709Z,45.87
2022-12-11T00:19:49.081Z,45.91
2022-12-11T00:24:52.741Z,46.34
2022-12-11T00:29:57.500Z,47.38
2022-12-11T00:35:01.716Z,48.06
2022-12-11T00:40:05.985Z,46.86
2022-12-11T00:45:11.930Z,46.34
2022-12-11T00:50:15.732Z,46.55
2022-12-11T00:55:19.289Z,46.09
2022-12-11T01:00:24.340Z,45.90
2022-12-11T01:05:27.881Z,46.31
2022-12-11T01:10:31.580Z,47.39
2022-12-11T01:15:41.762Z,47.61
2022-12-11T01:20:45.409Z,47.36
2022-12-11T01:25:48.756Z,47.15
2022-12-11T01:30:53.564Z,47.31
2022-12-11T01:35:56.969Z,46.90
2022-12-11T01:41:00.407Z,47.11
2022-12-11T01:46:05.477Z,46.68
2022-12-11T01:51:09.043Z,46.58
2022-12-11T01:56:12.754Z,47.56
2022-12-11T02:01:21.138Z,46.85
2022-12-11T02:06:38.856Z,46.49
2022-12-11T02:11:53.386Z,45.83
2022-12-11T02:17:02.483Z,45.82
2022-12-11T02:22:10.396Z,45.71
2022-12-11T02:27:21.485Z,45.86
2022-12-11T02:32:28.581Z,45.88
2022-12-11T02:37:32.922Z,45.70
2022-12-11T02:42:37.278Z,45.98
2022-12-11T02:47:42.790Z,46.05
2022-12-11T02:52:47.388Z,46.01
2022-12-11T02:57:53.042Z,46.07
2022-12-11T03:02:57.953Z,46.20
2022-12-11T03:08:01.397Z,46.23
2022-12-11T03:13:05.425Z,46.37
2022-12-11T03:18:16.575Z,45.89
2022-12-11T03:23:23.282Z,45.90
2022-12-11T03:28:30.793Z,45.94
2022-12-11T03:33:37.472Z,46.00
2022-12-11T03:38:45.336Z,46.23
2022-12-11T03:43:49.188Z,45.82
2022-12-11T03:48:54.854Z,45.34
2022-12-11T03:53:58.877Z,45.41
2022-12-11T03:59:02.237Z,45.02
2022-12-11T04:04:07.081Z,44.77
2022-12-11T04:09:10.471Z,45.13
2022-12-11T04:14:28.786Z,45.17
2022-12-11T04:19:51.202Z,45.23
2022-12-11T04:24:54.719Z,44.95
2022-12-11T04:29:58.065Z,45.29
2022-12-11T04:35:02.861Z,44.82
2022-12-11T04:40:08.126Z,44.62
2022-12-11T04:45:12.567Z,44.43
2022-12-11T04:50:18.477Z,44.19
2022-12-11T04:55:21.822Z,44.38
2022-12-11T05:00:25.176Z,44.26
2022-12-11T05:05:29.892Z,44.39
2022-12-11T05:10:33.317Z,44.05
2022-12-11T05:15:36.645Z,44.32
2022-12-11T05:20:41.356Z,44.66
2022-12-11T05:25:46.008Z,44.65
2022-12-11T05:30:49.454Z,44.46
2022-12-11T05:35:54.364Z,44.07
2022-12-11T05:40:58.847Z,43.94
2022-12-11T05:46:07.192Z,44.31
2022-12-11T05:51:12.194Z,44.27
2022-12-11T05:56:17.661Z,44.25
2022-12-11T06:01:22.776Z,45.01
2022-12-11T06:06:28.336Z,44.41
2022-12-11T06:11:33.353Z,44.31
2022-12-11T06:16:36.774Z,44.28
2022-12-11T06:21:42.065Z,44.41
2022-12-11T06:26:45.433Z,44.45
2022-12-11T06:31:48.873Z,44.21
2022-12-11T06:36:53.627Z,43.46
2022-12-11T06:41:56.952Z,43.81
2022-12-11T06:47:00.409Z,43.35
2022-12-11T06:52:06.875Z,43.56
2022-12-11T06:57:10.354Z,43.57
2022-12-11T07:02:14.850Z,43.48
2022-12-11T07:07:19.824Z,43.35
2022-12-11T07:12:23.197Z,43.46
2022-12-11T07:17:26.847Z,43.52
2022-12-11T07:22:31.568Z,44.08
2022-12-11T07:27:34.940Z,44.42
2022-12-11T07:32:38.592Z,44.37
2022-12-11T07:37:43.449Z,44.20
2022-12-11T07:42:46.841Z,44.43
2022-12-11T07:47:50.204Z,44.27
2022-12-11T07:52:54.977Z,44.52
2022-12-11T07:57:58.312Z,44.48
2022-12-11T08:03:02.034Z,44.68
2022-12-11T08:08:07.027Z,44.30
2022-12-11T08:13:10.884Z,44.48
2022-12-11T08:18:14.415Z,44.33
2022-12-11T08:23:19.148Z,44.34
2022-12-11T08:28:22.520Z,44.57
2022-12-11T08:33:25.960Z,44.59
2022-12-11T08:38:31.261Z,44.27
2022-12-11T08:43:35.816Z,44.76
2022-12-11T08:48:40.610Z,44.43
2022-12-11T08:53:45.557Z,44.14
2022-12-11T08:58:49.017Z,43.84
2022-12-11T09:03:53.695Z,44.40
2022-12-11T09:09:00.456Z,44.12
2022-12-11T09:14:07.571Z,44.39
2022-12-11T09:19:13.812Z,44.39
2022-12-11T09:24:18.537Z,44.29
2022-12-11T09:29:21.838Z,44.14
2022-12-11T09:34:29.067Z,43.33
2022-12-11T09:39:34.348Z,43.22
2022-12-11T09:44:43.281Z,43.29
2022-12-11T09:50:04.933Z,42.79
2022-12-11T09:55:16.615Z,42.78
2022-12-11T10:00:23.716Z,42.80
2022-12-11T10:05:32.064Z,43.08
2022-12-11T10:10:43.330Z,43.81
2022-12-11T10:15:51.810Z,42.80
2022-12-11T10:20:56.659Z,42.83
2022-12-11T10:26:05.595Z,42.68
2022-12-11T10:31:16.169Z,42.64
2022-12-11T10:36:23.317Z,42.88
2022-12-11T10:41:39.051Z,43.18
2022-12-11T10:46:42.438Z,42.70
2022-12-11T10:51:45.815Z,42.49
2022-12-11T10:56:51.482Z,42.30
2022-12-11T11:01:54.902Z,42.72
2022-12-11T11:07:11.458Z,41.79
2022-12-11T11:12:24.520Z,42.10
2022-12-11T11:17:32.108Z,41.88
2022-12-11T11:22:40.273Z,41.58
2022-12-11T11:27:46.750Z,42.25
2022-12-11T11:32:52.401Z,41.88
2022-12-11T11:38:01.739Z,41.54
2022-12-11T11:43:15.213Z,41.70
2022-12-11T11:48:28.971Z,40.43
2022-12-11T11:53:37.261Z,41.37
2022-12-11T11:58:46.789Z,40.60
2022-12-11T12:03:52.935Z,39.73
2022-12-11T12:09:04.658Z,40.27
2022-12-11T12:14:43.535Z,40.71
2022-12-11T12:19:53.092Z,40.21
2022-12-11T12:25:04.253Z,39.90
2022-12-11T12:30:17.383Z,39.00
2022-12-11T12:35:32.817Z,39.29
2022-12-11T12:40:41.653Z,38.56
2022-12-11T12:45:52.948Z,40.34
2022-12-11T12:50:56.794Z,38.88
2022-12-11T12:56:00.700Z,39.87
2022-12-11T13:01:16.747Z,39.06
2022-12-11T13:06:30.521Z,39.68
2022-12-11T13:11:35.136Z,39.64
2022-12-11T13:16:41.214Z,39.46
2022-12-11T13:21:44.648Z,40.10
2022-12-11T13:26:49.296Z,40.03
2022-12-11T13:32:00.855Z,40.58
2022-12-11T13:37:05.355Z,40.11
2022-12-11T13:42:21.550Z,40.16
2022-12-11T13:47:26.977Z,40.55
2022-12-11T13:52:31.635Z,40.18
2022-12-11T13:57:35.044Z,40.10
2022-12-11T14:02:42.460Z,40.32
2022-12-11T14:07:49.859Z,40.62
2022-12-11T14:12:56.695Z,40.95
2022-12-11T14:18:01.803Z,41.20
2022-12-11T14:23:06.281Z,41.23
2022-12-11T14:28:16.809Z,41.11
2022-12-11T14:33:24.902Z,41.28
2022-12-11T14:38:30.531Z,41.28
2022-12-11T14:43:37.045Z,41.85
2022-12-11T14:48:46.074Z,41.96
2022-12-11T14:53:51.784Z,42.22
2022-12-11T14:58:58.496Z,42.49
2022-12-11T15:04:08.588Z,42.78
2022-12-11T15:09:19.331Z,42.53
2022-12-11T15:14:23.952Z,43.09
2022-12-11T15:19:33.016Z,43.13
2022-12-11T15:24:39.256Z,43.06
2022-12-11T15:29:42.700Z,43.33
2022-12-11T15:34:49.306Z,43.65
2022-12-11T15:39:54.060Z,43.78
2022-12-11T15:44:57.733Z,43.48
2022-12-11T15:50:08.663Z,43.66
2022-12-11T15:55:12.621Z,44.32
2022-12-11T16:00:18.578Z,44.15
2022-12-11T16:05:23.373Z,43.92
2022-12-11T16:10:27.448Z,44.06
2022-12-11T16:15:31.084Z,44.32
2022-12-11T16:20:36.663Z,44.34
2022-12-11T16:25:41.238Z,44.71
2022-12-11T16:30:45.374Z,44.91
2022-12-11T16:35:50.133Z,43.97
2022-12-11T16:41:00.858Z,44.37
2022-12-11T16:46:04.483Z,44.43
2022-12-11T16:51:09.280Z,44.39
2022-12-11T16:56:12.854Z,44.58
2022-12-11T17:01:17.129Z,44.79
2022-12-11T17:06:22.006Z,45.05
2022-12-11T17:11:26.163Z,44.85
2022-12-11T17:16:30.406Z,45.20
2022-12-11T17:21:35.285Z,44.86
2022-12-11T17:26:38.618Z,44.99
2022-12-11T17:31:42.052Z,45.24
2022-12-11T17:36:47.133Z,45.19
2022-12-11T17:41:50.495Z,45.29
2022-12-11T17:46:53.883Z,45.42
2022-12-11T17:51:58.568Z,45.35
2022-12-11T17:57:02.202Z,45.22
2022-12-11T18:02:05.645Z,45.33
2022-12-11T18:07:10.348Z,45.57
2022-12-11T18:12:14.010Z,45.90
2022-12-11T18:17:17.352Z,45.93
2022-12-11T18:22:22.810Z,45.73
2022-12-11T18:27:26.360Z,45.87
2022-12-11T18:32:31.239Z,45.73
2022-12-11T18:37:36.041Z,45.83
2022-12-11T18:42:39.488Z,45.91
2022-12-11T18:47:42.826Z,45.98
2022-12-11T18:52:47.529Z,46.65
2022-12-11T18:57:50.948Z,46.27
2022-12-11T19:02:54.457Z,46.43
2022-12-11T19:07:59.191Z,46.49
2022-12-11T19:13:02.549Z,46.74
2022-12-11T19:18:06.003Z,46.54
2022-12-11T19:23:11.769Z,46.28
2022-12-11T19:28:15.498Z,46.12
2022-12-11T19:33:18.888Z,45.95
2022-12-11T19:38:23.877Z,45.81
2022-12-11T19:43:27.217Z,45.67
2022-12-11T19:48:31.625Z,45.56
2022-12-11T19:53:36.765Z,45.50
2022-12-11T19:58:40.176Z,45.22
2022-12-11T20:03:43.653Z,45.38
2022-12-11T20:08:49.157Z,45.45
2022-12-11T20:13:55.325Z,45.25
2022-12-11T20:18:58.730Z,45.48
2022-12-11T20:24:03.540Z,45.42
2022-12-11T20:29:08.169Z,45.34
2022-12-11T20:34:11.562Z,45.17
2022-12-11T20:39:16.345Z,45.25
2022-12-11T20:44:20.198Z,45.23
2022-12-11T20:49:23.578Z,45.48
2022-12-11T20:54:28.325Z,45.77
2022-12-11T20:59:31.713Z,45.47
2022-12-11T21:04:39.487Z,45.37
2022-12-11T21:09:44.573Z,45.54
2022-12-11T21:14:47.973Z,45.93
2022-12-11T21:19:51.529Z,45.79
2022-12-11T21:24:56.288Z,45.72
2022-12-11T21:29:59.691Z,45.48
2022-12-11T21:35:03.199Z,45.89
2022-12-11T21:40:08.908Z,45.23
2022-12-11T21:45:58.801Z,45.50
2022-12-11T21:50:35.904Z,45.17
2022-12-11T21:55:42.368Z,45.10
2022-12-11T22:00:46.526Z,44.98
2022-12-11T22:05:50.389Z,45.38
2022-12-11T22:10:56.563Z,44.89
2022-12-11T22:15:59.934Z,45.37
2022-12-11T22:21:03.337Z,45.11
2022-12-11T22:26:08.493Z,45.59
2022-12-11T22:31:12.343Z,45.11
2022-12-11T22:36:15.782Z,45.14
2022-12-11T22:41:25.197Z,44.95
2022-12-11T22:46:30.678Z,45.02
2022-12-11T22:51:34.216Z,45.36
2022-12-11T22:56:39.306Z,44.83
2022-12-11T23:01:42.734Z,44.75
2022-12-11T23:06:46.157Z,44.64
2022-12-11T23:11:51.117Z,44.87
2022-12-11T23:16:54.572Z,44.82
2022-12-11T23:21:58.012Z,44.71
2022-12-11T23:27:02.829Z,44.99
2022-12-11T23:32:06.406Z,45.24
2022-12-11T23:37:10.625Z,44.87
2022-12-11T23:42:15.409Z,44.84
2022-12-11T23:47:18.774Z,45.07
2022-12-11T23:52:22.561Z,45.06
2022-12-11T23:57:29.292Z,44.86
